Terminal Aerodrome Forecast
Issued by NWS

Home | Current Version | Previous Version | Text Only | Print | Product List | Glossary On
Versions: 1 2 3 4 5 6 7 8 9 10 11 12 13 14 15 16 17 18 19 20 21 22 23 24 25
457
FTUS46 KSEW 250305 AAA
TAFSEA
TAF AMD
KSEA 250305Z 2503/2606 32003KT P6SM FEW100 BKN200
     FM250600 04003KT P6SM SCT050 OVC100
     FM251200 18003KT P6SM SCT009 BKN050 OVC100
     FM251800 22005KT P6SM VCSH BKN015 OVC050
     FM260000 23006KT P6SM BKN030 OVC050=

USA.gov is the U.S. government's official web portal to all federal, state and local government web resources and services.